createdAt,value
2022-07-25T00:02:01.413Z,98930.69
2022-07-25T00:04:34.367Z,98932.03
2022-07-25T00:07:08.174Z,98930.55
2022-07-25T00:09:40.679Z,98921.85
2022-07-25T00:12:12.691Z,98921.38
2022-07-25T00:14:45.157Z,98923.20
2022-07-25T00:17:17.449Z,98922.05
2022-07-25T00:19:49.840Z,98924.88
2022-07-25T00:22:22.760Z,98922.58
2022-07-25T00:24:55.715Z,98916.72
2022-07-25T00:27:28.154Z,98911.74
2022-07-25T00:30:00.418Z,98908.56
2022-07-25T00:32:32.899Z,98911.39
2022-07-25T00:35:05.613Z,98911.92
2022-07-25T00:37:37.616Z,98911.08
2022-07-25T00:40:10.718Z,98916.95
2022-07-25T00:42:42.783Z,98904.73
2022-07-25T00:45:14.852Z,98912.11
2022-07-25T00:47:47.103Z,98902.44
2022-07-25T00:50:19.298Z,98904.42
2022-07-25T00:52:51.583Z,98903.09
2022-07-25T00:55:26.271Z,98900.11
2022-07-25T00:57:58.352Z,98897.77
2022-07-25T01:00:30.372Z,98901.28
2022-07-25T01:03:02.916Z,98907.11
2022-07-25T01:05:35.435Z,98900.11
2022-07-25T01:08:08.298Z,98904.80
2022-07-25T01:10:40.994Z,98896.80
2022-07-25T01:13:13.673Z,98902.78
2022-07-25T01:15:45.692Z,98903.95
2022-07-25T01:18:19.313Z,98902.78
2022-07-25T01:20:51.512Z,98902.45
2022-07-25T01:23:23.508Z,98903.63
2022-07-25T01:25:55.752Z,98904.59
2022-07-25T01:28:27.928Z,98904.11
2022-07-25T01:31:00.354Z,98913.12
2022-07-25T01:33:32.579Z,98913.10
2022-07-25T01:36:05.063Z,98915.92
2022-07-25T01:38:37.078Z,98908.39
2022-07-25T01:41:09.254Z,98914.41
2022-07-25T01:43:41.509Z,98920.56
2022-07-25T01:46:13.639Z,98926.06
2022-07-25T01:48:46.396Z,98923.05
2022-07-25T01:51:19.891Z,98924.71
2022-07-25T01:53:53.336Z,98926.41
2022-07-25T01:56:25.775Z,98928.39
2022-07-25T01:58:57.971Z,98926.57
2022-07-25T02:01:31.279Z,98930.22
2022-07-25T02:04:03.742Z,98922.05
2022-07-25T02:06:36.022Z,98919.03
2022-07-25T02:09:08.934Z,98921.70
2022-07-25T02:11:41.990Z,98918.02
2022-07-25T02:14:14.524Z,98917.69
2022-07-25T02:16:46.849Z,98917.69
2022-07-25T02:19:18.913Z,98915.86
2022-07-25T02:21:51.102Z,98914.85
2022-07-25T02:24:23.171Z,98916.98
2022-07-25T02:26:55.341Z,98910.29
2022-07-25T02:29:27.744Z,98913.14
2022-07-25T02:32:00.475Z,98914.48
2022-07-25T02:34:32.759Z,98920.48
2022-07-25T02:37:04.928Z,98922.64
2022-07-25T02:39:37.004Z,98918.25
2022-07-25T02:42:09.390Z,98916.89
2022-07-25T02:44:41.667Z,98921.56
2022-07-25T02:47:13.875Z,98922.88
2022-07-25T02:49:45.943Z,98927.21
2022-07-25T02:52:18.163Z,98924.20
2022-07-25T02:54:50.906Z,98927.34
2022-07-25T02:57:23.264Z,98923.66
2022-07-25T02:59:55.776Z,98918.13
2022-07-25T03:02:28.350Z,98921.66
2022-07-25T03:05:00.412Z,98919.62
2022-07-25T03:07:33.242Z,98926.45
2022-07-25T03:10:08.759Z,98909.59
2022-07-25T03:12:43.162Z,98915.95
2022-07-25T03:15:15.666Z,98911.25
2022-07-25T03:17:47.596Z,98918.94
2022-07-25T03:20:19.769Z,98905.01
2022-07-25T03:22:52.044Z,98912.34
2022-07-25T03:25:24.364Z,98902.11
2022-07-25T03:27:56.685Z,98911.28
2022-07-25T03:30:29.329Z,98912.77
2022-07-25T03:33:01.509Z,98913.93
2022-07-25T03:35:33.664Z,98912.56
2022-07-25T03:38:07.835Z,98906.48
2022-07-25T03:40:40.822Z,98905.11
2022-07-25T03:43:13.004Z,98906.25
2022-07-25T03:45:45.131Z,98905.72
2022-07-25T03:48:17.237Z,98900.48
2022-07-25T03:50:49.592Z,98903.44
2022-07-25T03:53:22.657Z,98914.75
2022-07-25T03:58:25.455Z,98911.27
2022-07-25T04:00:58.923Z,98921.23
2022-07-25T04:03:31.715Z,98921.85
2022-07-25T04:06:03.753Z,98919.45
2022-07-25T04:08:36.130Z,98917.23
2022-07-25T04:11:08.594Z,98916.88
2022-07-25T04:13:40.729Z,98914.86
2022-07-25T04:16:16.873Z,98918.83
2022-07-25T04:18:47.097Z,98918.83
2022-07-25T04:21:22.179Z,98906.42
2022-07-25T04:23:54.744Z,98909.59
2022-07-25T04:26:26.733Z,98914.38
2022-07-25T04:28:59.271Z,98910.70
2022-07-25T04:31:32.793Z,98905.13
2022-07-25T04:34:05.287Z,98911.61
2022-07-25T04:36:37.836Z,98899.89
2022-07-25T04:39:10.202Z,98907.18
2022-07-25T04:41:42.556Z,98909.13
2022-07-25T04:44:15.233Z,98905.96
2022-07-25T04:46:47.242Z,98899.14
2022-07-25T04:49:19.564Z,98899.69
2022-07-25T04:51:51.691Z,98902.05
2022-07-25T04:54:24.247Z,98899.06
2022-07-25T04:56:56.599Z,98893.95
2022-07-25T04:59:28.986Z,98899.42
2022-07-25T05:02:02.665Z,98899.09
2022-07-25T05:04:35.481Z,98898.34
2022-07-25T05:07:09.190Z,98898.94
2022-07-25T05:09:41.994Z,98901.17
2022-07-25T05:12:14.875Z,98901.69
2022-07-25T05:14:47.771Z,98896.60
2022-07-25T05:17:20.645Z,98903.11
2022-07-25T05:19:53.490Z,98894.36
2022-07-25T05:22:28.581Z,98899.47
2022-07-25T05:25:02.292Z,98895.03
2022-07-25T05:27:35.462Z,98890.34
2022-07-25T05:30:11.174Z,98902.84
2022-07-25T05:32:44.974Z,98901.41
2022-07-25T05:35:17.851Z,98903.33
2022-07-25T05:37:50.134Z,98894.27
2022-07-25T05:40:24.507Z,98900.80
2022-07-25T05:43:02.552Z,98901.63
2022-07-25T05:45:33.095Z,98892.86
2022-07-25T05:48:05.596Z,98893.63
2022-07-25T05:50:41.576Z,98889.95
2022-07-25T05:53:15.374Z,98890.48
2022-07-25T05:55:47.891Z,98883.57
2022-07-25T05:58:20.585Z,98890.38
2022-07-25T06:00:53.343Z,98889.42
2022-07-25T06:03:25.648Z,98881.19
2022-07-25T06:05:58.048Z,98878.79
2022-07-25T06:08:31.055Z,98884.38
2022-07-25T06:11:05.406Z,98883.80
2022-07-25T06:13:39.743Z,98884.02
2022-07-25T06:16:13.016Z,98886.53
2022-07-25T06:18:45.711Z,98882.38
2022-07-25T06:21:18.111Z,98883.38
2022-07-25T06:23:50.556Z,98885.60
2022-07-25T06:26:24.788Z,98885.48
2022-07-25T06:28:57.802Z,98878.91
2022-07-25T06:31:30.508Z,98886.80
2022-07-25T06:34:03.238Z,98886.59
2022-07-25T06:36:36.046Z,98883.84
2022-07-25T06:39:08.418Z,98888.06
2022-07-25T06:41:40.559Z,98890.66
2022-07-25T06:44:12.839Z,98886.94
2022-07-25T06:46:45.100Z,98888.80
2022-07-25T06:49:17.694Z,98892.94
2022-07-25T06:51:50.528Z,98892.45
2022-07-25T06:54:22.669Z,98888.42
2022-07-25T06:56:55.425Z,98882.80
2022-07-25T06:59:28.225Z,98887.16
2022-07-25T07:02:01.179Z,98886.95
2022-07-25T07:04:33.624Z,98890.38
2022-07-25T07:07:05.712Z,98887.28
2022-07-25T07:09:38.381Z,98880.84
2022-07-25T07:12:11.898Z,98880.84
2022-07-25T07:14:47.631Z,98884.75
2022-07-25T07:17:19.602Z,98888.70
2022-07-25T07:19:51.997Z,98880.83
2022-07-25T07:22:24.813Z,98891.04
2022-07-25T07:24:57.234Z,98887.52
2022-07-25T07:27:29.684Z,98895.79
2022-07-25T07:30:02.571Z,98902.55
2022-07-25T07:32:34.627Z,98891.94
2022-07-25T07:35:08.260Z,98885.64
2022-07-25T07:37:43.798Z,98892.16
2022-07-25T07:40:18.054Z,98896.81
2022-07-25T07:42:51.591Z,98895.11
2022-07-25T07:45:26.317Z,98897.40
2022-07-25T07:47:57.773Z,98892.03
2022-07-25T07:50:30.227Z,98895.08
2022-07-25T07:53:03.316Z,98891.22
2022-07-25T07:55:46.741Z,98893.09
2022-07-25T07:58:22.267Z,98892.58
2022-07-25T08:00:54.666Z,98899.56
2022-07-25T08:03:27.928Z,98897.58
2022-07-25T08:06:00.637Z,98888.37
2022-07-25T08:08:33.853Z,98886.97
2022-07-25T08:11:06.199Z,98893.76
2022-07-25T08:13:38.547Z,98890.31
2022-07-25T08:16:12.089Z,98880.03
2022-07-25T08:18:44.610Z,98889.66
2022-07-25T08:21:17.657Z,98893.43
2022-07-25T08:23:49.894Z,98892.45
2022-07-25T08:26:22.071Z,98891.53
2022-07-25T08:29:17.228Z,98898.16
2022-07-25T08:31:29.565Z,98884.38
2022-07-25T08:34:02.013Z,98894.88
2022-07-25T08:36:35.567Z,98881.94
2022-07-25T08:39:08.368Z,98888.67
2022-07-25T08:41:42.695Z,98883.10
2022-07-25T08:44:17.887Z,98888.80
2022-07-25T08:46:52.058Z,98886.88
2022-07-25T08:49:25.441Z,98886.91
2022-07-25T08:51:58.266Z,98883.95
2022-07-25T08:54:32.251Z,98883.31
2022-07-25T08:57:06.711Z,98880.49
2022-07-25T08:59:39.246Z,98888.73
2022-07-25T09:02:16.398Z,98889.95
2022-07-25T09:04:49.048Z,98883.31
2022-07-25T09:07:36.221Z,98894.78
2022-07-25T09:10:20.596Z,98891.16
2022-07-25T09:13:02.294Z,98887.17
2022-07-25T09:15:40.570Z,98888.95
2022-07-25T09:18:15.983Z,98880.83
2022-07-25T09:21:00.436Z,98882.17
2022-07-25T09:23:38.528Z,98888.17
2022-07-25T09:26:14.306Z,98882.30
2022-07-25T09:28:51.321Z,98887.08
2022-07-25T09:31:25.276Z,98885.78
2022-07-25T09:33:59.141Z,98881.66
2022-07-25T09:36:31.065Z,98884.55
2022-07-25T09:39:05.850Z,98887.59
2022-07-25T09:41:39.979Z,98890.44
2022-07-25T09:44:23.817Z,98895.48
2022-07-25T09:46:57.141Z,98890.44
2022-07-25T09:49:44.820Z,98887.11
2022-07-25T09:52:18.023Z,98888.79
2022-07-25T09:54:50.991Z,98883.20
2022-07-25T09:57:26.185Z,98890.38
2022-07-25T10:00:01.684Z,98890.87
2022-07-25T10:02:58.206Z,98893.94
2022-07-25T10:06:03.786Z,98884.38
2022-07-25T10:08:42.089Z,98883.48
2022-07-25T10:11:28.496Z,98876.39
2022-07-25T10:14:03.783Z,98876.96
2022-07-25T10:16:39.547Z,98884.10
2022-07-25T10:19:11.845Z,98878.85
2022-07-25T10:21:45.815Z,98877.77
2022-07-25T10:24:18.902Z,98872.98
2022-07-25T10:26:54.696Z,98873.36
2022-07-25T10:29:29.904Z,98871.86
2022-07-25T10:32:10.377Z,98872.64
2022-07-25T10:34:44.234Z,98865.59
2022-07-25T10:37:21.511Z,98867.64
2022-07-25T10:39:54.342Z,98859.20
2022-07-25T10:42:27.212Z,98864.13
2022-07-25T10:45:01.240Z,98865.64
2022-07-25T10:47:40.463Z,98858.33
2022-07-25T10:50:25.543Z,98872.77
2022-07-25T10:52:49.100Z,98854.92
2022-07-25T10:55:25.091Z,98861.94
2022-07-25T10:58:17.593Z,98854.64
2022-07-25T11:00:47.447Z,98854.64
2022-07-25T11:03:21.315Z,98857.66
2022-07-25T11:05:54.868Z,98850.13
2022-07-25T11:08:36.013Z,98852.38
2022-07-25T11:11:09.049Z,98852.13
2022-07-25T11:13:44.488Z,98850.17
2022-07-25T11:16:16.813Z,98859.13
2022-07-25T11:18:50.040Z,98850.12
2022-07-25T11:21:22.642Z,98855.36
2022-07-25T11:23:55.153Z,98850.81
2022-07-25T11:26:27.683Z,98852.80
2022-07-25T11:28:59.904Z,98843.59
2022-07-25T11:31:33.098Z,98846.03
2022-07-25T11:34:05.182Z,98843.30
2022-07-25T11:36:37.263Z,98837.30
2022-07-25T11:39:12.329Z,98845.67
2022-07-25T11:41:43.360Z,98836.84
2022-07-25T11:44:15.277Z,98838.91
2022-07-25T11:46:47.873Z,98827.11
2022-07-25T11:49:20.144Z,98826.66
2022-07-25T11:51:52.632Z,98826.12
2022-07-25T11:54:25.150Z,98822.95
2022-07-25T11:56:57.516Z,98812.69
2022-07-25T11:59:29.788Z,98821.34
2022-07-25T12:02:02.156Z,98818.72
2022-07-25T12:04:34.464Z,98823.39
2022-07-25T12:07:07.210Z,98815.16
2022-07-25T12:09:39.210Z,98823.74
2022-07-25T12:12:11.459Z,98817.76
2022-07-25T12:14:46.507Z,98802.75
2022-07-25T12:17:18.644Z,98805.89
2022-07-25T12:19:50.891Z,98809.03
2022-07-25T12:22:23.152Z,98810.54
2022-07-25T12:24:55.100Z,98808.77
2022-07-25T12:27:27.210Z,98798.11
2022-07-25T12:29:59.238Z,98807.66
2022-07-25T12:32:33.098Z,98800.95
2022-07-25T12:35:07.999Z,98809.47
2022-07-25T12:37:41.644Z,98788.36
2022-07-25T12:40:15.665Z,98798.77
2022-07-25T12:42:49.867Z,98794.02
2022-07-25T12:45:23.179Z,98787.97
2022-07-25T12:47:56.560Z,98791.34
2022-07-25T12:50:29.968Z,98793.34
2022-07-25T12:53:03.217Z,98779.48
2022-07-25T12:55:35.974Z,98781.03
2022-07-25T12:58:09.415Z,98779.92
2022-07-25T13:00:41.717Z,98776.88
2022-07-25T13:03:15.335Z,98781.51
2022-07-25T13:05:47.520Z,98779.70
2022-07-25T13:08:19.959Z,98784.67
2022-07-25T13:10:52.272Z,98787.30
2022-07-25T13:13:25.269Z,98783.14
2022-07-25T13:15:57.765Z,98786.87
2022-07-25T13:18:30.604Z,98779.75
2022-07-25T13:21:03.723Z,98779.75
2022-07-25T13:23:35.771Z,98786.11
2022-07-25T13:26:08.831Z,98780.91
2022-07-25T13:28:41.339Z,98796.66
2022-07-25T13:31:13.692Z,98788.92
2022-07-25T13:33:46.085Z,98783.14
2022-07-25T13:36:20.317Z,98775.07
2022-07-25T13:38:52.775Z,98771.94
2022-07-25T13:41:26.188Z,98779.16
2022-07-25T13:43:58.275Z,98776.21
2022-07-25T13:46:30.285Z,98772.02
2022-07-25T13:49:02.552Z,98784.80
2022-07-25T13:51:34.854Z,98772.22
2022-07-25T13:54:07.181Z,98778.59
2022-07-25T13:56:40.661Z,98772.62
2022-07-25T13:59:18.798Z,98773.77
2022-07-25T14:01:47.704Z,98768.52
2022-07-25T14:04:20.080Z,98761.00
2022-07-25T14:06:52.503Z,98767.66
2022-07-25T14:09:24.639Z,98760.64
2022-07-25T14:11:56.793Z,98766.84
2022-07-25T14:14:29.010Z,98767.06
2022-07-25T14:17:01.807Z,98767.11
2022-07-25T14:19:34.264Z,98764.48
2022-07-25T14:22:07.158Z,98765.27
2022-07-25T14:24:40.031Z,98772.27
2022-07-25T14:27:12.692Z,98771.72
2022-07-25T14:29:45.160Z,98777.55
2022-07-25T14:32:17.636Z,98765.13
2022-07-25T14:34:51.212Z,98779.31
2022-07-25T14:37:24.151Z,98771.50
2022-07-25T14:39:56.743Z,98777.91
2022-07-25T14:42:29.826Z,98771.55
2022-07-25T14:45:02.158Z,98760.98
2022-07-25T14:47:35.035Z,98765.50
2022-07-25T14:50:08.044Z,98775.88
2022-07-25T14:52:40.557Z,98756.88
2022-07-25T14:55:13.000Z,98770.74
2022-07-25T14:57:46.607Z,98762.84
2022-07-25T15:00:19.009Z,98758.19
2022-07-25T15:02:51.197Z,98758.19
2022-07-25T15:05:23.349Z,98776.45
2022-07-25T15:07:55.678Z,98772.05
2022-07-25T15:10:27.996Z,98775.55
2022-07-25T15:13:28.227Z,98782.90
2022-07-25T15:15:36.076Z,98784.65
2022-07-25T15:18:13.406Z,98785.94
2022-07-25T15:20:43.469Z,98783.24
2022-07-25T15:23:15.962Z,98774.10
2022-07-25T15:26:04.940Z,98778.96
2022-07-25T15:28:23.718Z,98778.86
2022-07-25T15:30:56.537Z,98786.83
2022-07-25T15:33:29.708Z,98773.50
2022-07-25T15:36:01.994Z,98779.23
2022-07-25T15:38:34.040Z,98770.41
2022-07-25T15:41:06.432Z,98789.52
2022-07-25T15:43:39.546Z,98794.06
2022-07-25T15:46:14.201Z,98797.70
2022-07-25T15:48:47.843Z,98795.79
2022-07-25T15:51:20.752Z,98803.72
2022-07-25T15:53:53.047Z,98814.37
2022-07-25T15:56:25.882Z,98815.95
2022-07-25T15:58:58.085Z,98828.61
2022-07-25T16:01:31.240Z,98831.15
2022-07-25T16:04:03.778Z,98835.67
2022-07-25T16:06:36.719Z,98835.84
2022-07-25T16:09:11.078Z,98841.00
2022-07-25T16:11:44.245Z,98853.11
2022-07-25T16:14:17.003Z,98857.66
2022-07-25T16:16:49.718Z,98859.06
2022-07-25T16:19:22.411Z,98865.22
2022-07-25T16:21:56.604Z,98855.13
2022-07-25T16:24:29.159Z,98867.98
2022-07-25T16:27:01.343Z,98863.88
2022-07-25T16:29:33.558Z,98867.89
2022-07-25T16:32:07.019Z,98871.55
2022-07-25T16:34:39.598Z,98870.97
2022-07-25T16:37:11.908Z,98878.95
2022-07-25T16:39:44.135Z,98878.19
2022-07-25T16:42:17.255Z,98894.56
2022-07-25T16:44:49.978Z,98913.77
2022-07-25T16:47:22.063Z,98928.73
2022-07-25T16:49:54.506Z,98927.32
2022-07-25T16:52:26.872Z,98923.95
2022-07-25T16:54:59.595Z,98923.54
2022-07-25T16:57:33.596Z,98918.83
2022-07-25T17:00:09.411Z,98932.30
2022-07-25T17:02:45.395Z,98940.47
2022-07-25T17:05:18.661Z,98932.73
2022-07-25T17:07:58.936Z,98936.52
2022-07-25T17:10:27.612Z,98939.56
2022-07-25T17:13:00.161Z,98931.98
2022-07-25T17:15:32.521Z,98938.34
2022-07-25T17:18:06.311Z,98943.89
2022-07-25T17:20:38.939Z,98943.19
2022-07-25T17:23:11.264Z,98931.14
2022-07-25T17:25:48.624Z,98935.61
2022-07-25T17:28:18.013Z,98927.52
2022-07-25T17:30:50.746Z,98927.77
2022-07-25T17:33:23.101Z,98930.35
2022-07-25T17:35:55.464Z,98929.64
2022-07-25T17:38:31.594Z,98936.13
2022-07-25T17:41:01.954Z,98936.13
2022-07-25T17:43:34.198Z,98926.53
2022-07-25T17:46:07.452Z,98930.89
2022-07-25T17:48:39.820Z,98922.20
2022-07-25T17:51:12.055Z,98923.56
2022-07-25T17:53:44.430Z,98922.25
2022-07-25T17:56:16.990Z,98921.11
2022-07-25T17:58:49.210Z,98923.00
2022-07-25T18:01:21.861Z,98929.71
2022-07-25T18:03:53.988Z,98938.38
2022-07-25T18:06:29.699Z,98940.76
2022-07-25T18:09:00.428Z,98953.49
2022-07-25T18:11:32.880Z,98940.45
2022-07-25T18:14:05.814Z,98945.30
2022-07-25T18:16:38.432Z,98946.49
2022-07-25T18:19:11.778Z,98940.33
2022-07-25T18:21:45.211Z,98940.16
2022-07-25T18:24:17.805Z,98939.95
2022-07-25T18:26:50.353Z,98937.48
2022-07-25T18:29:22.426Z,98928.78
2022-07-25T18:31:55.476Z,98927.97
2022-07-25T18:34:27.881Z,98926.11
2022-07-25T18:37:00.092Z,98934.81
2022-07-25T18:39:32.434Z,98922.42
2022-07-25T18:42:04.631Z,98918.94
2022-07-25T18:44:37.547Z,98930.45
2022-07-25T18:47:09.777Z,98928.61
2022-07-25T18:49:42.216Z,98929.62
2022-07-25T18:52:14.370Z,98921.61
2022-07-25T18:54:46.588Z,98930.65
2022-07-25T18:57:18.654Z,98929.62
2022-07-25T18:59:50.963Z,98931.46
2022-07-25T19:02:23.609Z,98928.95
2022-07-25T19:04:56.221Z,98929.13
2022-07-25T19:07:30.166Z,98939.19
2022-07-25T19:10:03.261Z,98934.86
2022-07-25T19:12:35.437Z,98942.70
2022-07-25T19:15:08.746Z,98954.89
2022-07-25T19:17:41.491Z,98946.87
2022-07-25T19:20:14.240Z,98955.70
2022-07-25T19:22:46.235Z,98952.69
2022-07-25T19:25:19.250Z,98958.34
2022-07-25T19:27:51.662Z,98962.50
2022-07-25T19:30:24.044Z,98960.16
2022-07-25T19:32:56.025Z,98961.81
2022-07-25T19:35:28.339Z,98955.63
2022-07-25T19:38:00.456Z,98958.30
2022-07-25T19:40:34.691Z,98960.50
2022-07-25T19:43:06.674Z,98964.36
2022-07-25T19:45:39.552Z,98962.88
2022-07-25T19:48:11.879Z,98968.87
2022-07-25T19:50:44.311Z,98970.90
2022-07-25T19:53:16.457Z,98976.25
2022-07-25T19:55:49.412Z,98978.92
2022-07-25T19:58:21.450Z,98980.76
2022-07-25T20:00:53.461Z,98980.25
2022-07-25T20:03:25.507Z,98982.55
2022-07-25T20:05:57.829Z,98968.83
2022-07-25T20:08:29.811Z,98974.64
2022-07-25T20:11:01.932Z,98979.19
2022-07-25T20:13:34.075Z,98983.52
2022-07-25T20:16:06.518Z,98974.48
2022-07-25T20:18:38.869Z,98978.64
2022-07-25T20:21:12.736Z,98987.69
2022-07-25T20:23:45.500Z,99001.06
2022-07-25T20:26:17.644Z,98998.09
2022-07-25T20:28:49.953Z,98992.44
2022-07-25T20:31:24.538Z,99006.62
2022-07-25T20:33:55.853Z,98995.92
2022-07-25T20:36:27.594Z,99006.19
2022-07-25T20:38:59.841Z,98996.05
2022-07-25T20:41:32.985Z,99005.09
2022-07-25T20:44:05.890Z,98989.21
2022-07-25T20:46:39.155Z,98990.23
2022-07-25T20:49:13.533Z,98983.05
2022-07-25T20:51:47.874Z,98988.57
2022-07-25T20:54:19.448Z,98979.23
2022-07-25T20:56:51.537Z,98985.22
2022-07-25T20:59:23.945Z,98992.61
2022-07-25T21:01:56.387Z,98987.59
2022-07-25T21:04:28.469Z,98996.80
2022-07-25T21:07:00.474Z,98991.45
2022-07-25T21:09:32.893Z,98999.99
2022-07-25T21:12:05.079Z,98995.66
2022-07-25T21:14:37.563Z,99001.72
2022-07-25T21:17:09.758Z,98996.37
2022-07-25T21:19:41.918Z,99004.73
2022-07-25T21:22:14.086Z,99009.41
2022-07-25T21:24:46.414Z,99006.59
2022-07-25T21:27:19.364Z,99002.42
2022-07-25T21:29:51.562Z,98993.38
2022-07-25T21:32:23.695Z,98998.42
2022-07-25T21:34:55.687Z,98998.80
2022-07-25T21:37:28.000Z,98998.28
2022-07-25T21:40:00.239Z,98996.45
2022-07-25T21:42:34.451Z,99001.49
2022-07-25T21:45:07.368Z,98997.49
2022-07-25T21:47:39.459Z,98997.30
2022-07-25T21:50:29.743Z,99009.17
2022-07-25T21:53:02.212Z,99014.52
2022-07-25T21:55:34.507Z,99008.35
2022-07-25T21:58:07.225Z,99004.83
2022-07-25T22:00:45.262Z,98998.16
2022-07-25T22:03:13.247Z,99003.03
2022-07-25T22:05:45.259Z,99004.17
2022-07-25T22:08:17.518Z,99006.33
2022-07-25T22:10:49.572Z,99009.53
2022-07-25T22:13:21.647Z,99015.20
2022-07-25T22:15:53.643Z,99015.53
2022-07-25T22:18:25.645Z,99010.72
2022-07-25T22:20:59.703Z,99014.90
2022-07-25T22:23:31.798Z,99013.56
2022-07-25T22:26:03.849Z,99021.91
2022-07-25T22:28:36.234Z,99019.77
2022-07-25T22:31:09.380Z,99014.59
2022-07-25T22:33:41.827Z,99011.56
2022-07-25T22:36:13.963Z,99007.39
2022-07-25T22:38:46.246Z,99012.24
2022-07-25T22:41:18.437Z,99015.40
2022-07-25T22:43:57.951Z,99009.57
2022-07-25T22:46:24.303Z,99019.24
2022-07-25T22:48:56.699Z,99018.07
2022-07-25T22:51:29.780Z,99019.77
2022-07-25T22:54:02.598Z,99024.91
2022-07-25T22:56:34.890Z,99024.09
2022-07-25T22:59:07.171Z,99016.25
2022-07-25T23:01:39.566Z,99021.91
2022-07-25T23:04:11.736Z,99014.42
2022-07-25T23:06:43.906Z,99014.75
2022-07-25T23:09:16.207Z,99019.76
2022-07-25T23:11:48.565Z,99021.58
2022-07-25T23:14:20.717Z,99025.58
2022-07-25T23:16:54.520Z,99026.75
2022-07-25T23:19:26.773Z,99024.24
2022-07-25T23:21:58.781Z,99022.55
2022-07-25T23:24:34.382Z,99014.86
2022-07-25T23:27:05.200Z,99010.69
2022-07-25T23:29:37.167Z,99017.85
2022-07-25T23:32:09.800Z,99022.70
2022-07-25T23:34:41.878Z,99017.36
2022-07-25T23:37:13.985Z,99013.19
2022-07-25T23:39:45.979Z,99011.84
2022-07-25T23:42:18.119Z,99010.34
2022-07-25T23:44:50.227Z,99005.33
2022-07-25T23:47:39.080Z,99002.98
2022-07-25T23:49:57.625Z,99001.16
2022-07-25T23:52:29.758Z,99004.99
2022-07-25T23:55:01.954Z,99004.50
2022-07-25T23:57:33.923Z,99007.33
